createdAt,value
2019-02-04T00:01:31.871Z,18.60
2019-02-04T00:04:12.020Z,19.35
2019-02-04T00:06:51.750Z,13.90
2019-02-04T00:09:32.074Z,13.50
2019-02-04T00:12:12.423Z,14.65
2019-02-04T00:14:53.149Z,12.78
2019-02-04T00:17:33.376Z,15.00
2019-02-04T00:20:13.111Z,13.08
2019-02-04T00:22:53.272Z,12.40
2019-02-04T00:25:33.312Z,8.63
2019-02-04T00:28:13.964Z,9.28
2019-02-04T00:30:54.488Z,12.35
2019-02-04T00:33:34.484Z,8.18
2019-02-04T00:36:14.693Z,10.55
2019-02-04T00:38:54.571Z,10.55
2019-02-04T00:41:34.509Z,13.35
2019-02-04T00:44:14.395Z,8.05
2019-02-04T00:46:54.553Z,10.68
2019-02-04T00:49:34.479Z,14.03
2019-02-04T00:52:14.895Z,10.58
2019-02-04T00:54:54.784Z,11.43
2019-02-04T00:57:22.309Z,8.28
2019-02-04T01:03:33.526Z,7.20
2019-02-04T01:06:13.793Z,7.85
2019-02-04T01:08:53.582Z,8.13
2019-02-04T01:11:33.741Z,8.93
2019-02-04T01:14:13.907Z,11.43
2019-02-04T01:17:03.284Z,10.15
2019-02-04T01:19:36.032Z,14.20
2019-02-04T01:22:16.026Z,11.20
2019-02-04T01:24:56.092Z,12.78
2019-02-04T01:27:36.466Z,21.68
2019-02-04T01:30:16.177Z,9.23
2019-02-04T01:32:56.468Z,13.80
2019-02-04T01:35:36.792Z,10.55
2019-02-04T01:38:16.903Z,11.65
2019-02-04T01:40:56.686Z,13.53
2019-02-04T01:43:36.730Z,13.18
2019-02-04T01:46:16.822Z,11.90
2019-02-04T01:48:57.114Z,9.65
2019-02-04T01:51:25.955Z,12.00
2019-02-04T01:54:06.071Z,10.35
2019-02-04T01:56:46.240Z,7.60
2019-02-04T01:59:26.302Z,10.18
2019-02-04T02:02:06.346Z,8.08
2019-02-04T02:04:46.587Z,13.80
2019-02-04T02:07:26.828Z,9.33
2019-02-04T02:10:07.388Z,6.12
2019-02-04T02:12:47.375Z,9.00
2019-02-04T02:15:27.416Z,9.35
2019-02-04T02:18:07.556Z,7.00
2019-02-04T02:20:48.808Z,7.33
2019-02-04T02:23:28.877Z,7.35
2019-02-04T02:26:09.436Z,8.48
2019-02-04T02:28:49.152Z,8.13
2019-02-04T02:31:29.207Z,9.85
2019-02-04T02:34:09.253Z,10.60
2019-02-04T02:36:49.473Z,8.93
2019-02-04T02:39:29.707Z,9.60
2019-02-04T02:42:09.468Z,12.00
2019-02-04T02:44:49.719Z,13.10
2019-02-04T02:47:38.097Z,7.55
2019-02-04T02:50:12.362Z,8.50
2019-02-04T02:52:52.339Z,7.72
2019-02-04T02:55:33.080Z,6.75
2019-02-04T02:58:13.374Z,11.95
2019-02-04T03:00:53.487Z,6.97
2019-02-04T03:03:33.845Z,7.20
2019-02-04T03:06:14.315Z,12.93
2019-02-04T03:08:54.772Z,6.70
2019-02-04T03:11:35.246Z,11.65
2019-02-04T03:14:15.402Z,7.22
2019-02-04T03:16:55.413Z,7.53
2019-02-04T03:19:35.745Z,8.28
2019-02-04T03:22:15.914Z,7.05
2019-02-04T03:24:55.664Z,6.90
2019-02-04T03:27:36.687Z,6.35
2019-02-04T03:30:16.762Z,8.83
2019-02-04T03:32:56.457Z,9.10
2019-02-04T03:35:36.847Z,8.83
2019-02-04T03:38:16.904Z,5.85
2019-02-04T03:40:56.958Z,7.05
2019-02-04T03:43:37.017Z,8.65
2019-02-04T03:46:17.114Z,6.53
2019-02-04T03:48:56.906Z,9.85
2019-02-04T03:51:37.977Z,7.90
2019-02-04T03:54:18.111Z,10.30
2019-02-04T03:56:58.442Z,12.25
2019-02-04T03:59:38.190Z,8.78
2019-02-04T04:02:18.604Z,13.20
2019-02-04T04:04:58.409Z,10.00
2019-02-04T04:07:38.239Z,12.63
2019-02-04T04:10:18.380Z,9.08
2019-02-04T04:12:58.503Z,7.28
2019-02-04T04:15:38.854Z,8.83
2019-02-04T04:18:18.496Z,8.90
2019-02-04T04:20:58.660Z,8.93
2019-02-04T04:23:38.435Z,6.58
2019-02-04T04:26:18.838Z,8.15
2019-02-04T04:28:58.880Z,6.55
2019-02-04T04:31:38.684Z,6.15
2019-02-04T04:34:18.785Z,11.18
2019-02-04T04:36:58.962Z,8.65
2019-02-04T04:39:39.005Z,5.95
2019-02-04T04:42:18.820Z,5.50
2019-02-04T04:44:59.046Z,9.55
2019-02-04T04:47:39.090Z,6.10
2019-02-04T04:50:19.326Z,8.23
2019-02-04T04:52:59.532Z,7.00
2019-02-04T04:55:39.724Z,6.45
2019-02-04T04:58:19.681Z,5.75
2019-02-04T05:01:00.266Z,10.25
2019-02-04T05:03:40.010Z,7.92
2019-02-04T05:06:20.041Z,6.33
2019-02-04T05:09:00.216Z,7.03
2019-02-04T05:11:40.562Z,6.22
2019-02-04T05:14:21.112Z,12.98
2019-02-04T05:17:01.312Z,14.23
2019-02-04T05:19:41.440Z,13.55
2019-02-04T05:22:22.284Z,10.50
2019-02-04T05:25:02.632Z,7.47
2019-02-04T05:27:40.787Z,7.50
2019-02-04T05:30:28.205Z,7.87
2019-02-04T05:33:08.489Z,6.40
2019-02-04T05:35:48.594Z,6.60
2019-02-04T05:38:28.476Z,7.80
2019-02-04T05:41:08.518Z,6.62
2019-02-04T05:43:49.444Z,6.45
2019-02-04T05:46:29.685Z,8.00
2019-02-04T05:49:10.308Z,5.15
2019-02-04T05:51:50.281Z,5.47
2019-02-04T05:54:30.249Z,6.53
2019-02-04T05:57:10.480Z,7.62
2019-02-04T05:59:50.311Z,7.17
2019-02-04T06:02:30.450Z,5.47
2019-02-04T06:05:10.754Z,8.63
2019-02-04T06:07:50.730Z,12.93
2019-02-04T06:10:30.954Z,6.70
2019-02-04T06:13:11.240Z,8.50
2019-02-04T06:15:51.192Z,10.30
2019-02-04T06:18:32.003Z,24.70
2019-02-04T06:21:12.171Z,22.65
2019-02-04T06:23:51.964Z,26.25
2019-02-04T06:26:31.824Z,31.10
2019-02-04T06:29:12.125Z,34.15
2019-02-04T06:31:52.210Z,31.60
2019-02-04T06:34:32.682Z,32.15
2019-02-04T06:37:12.455Z,30.90
2019-02-04T06:39:52.558Z,30.35
2019-02-04T06:42:33.235Z,25.52
2019-02-04T06:45:12.831Z,22.50
2019-02-04T06:47:52.981Z,16.40
2019-02-04T06:50:34.073Z,19.42
2019-02-04T06:53:13.944Z,13.50
2019-02-04T06:55:54.226Z,15.32
2019-02-04T06:58:34.597Z,16.20
2019-02-04T07:01:14.578Z,16.82
2019-02-04T07:03:54.621Z,15.53
2019-02-04T07:06:34.556Z,18.98
2019-02-04T07:09:14.811Z,14.30
2019-02-04T07:11:58.078Z,12.73
2019-02-04T07:14:38.811Z,17.48
2019-02-04T07:17:19.242Z,13.03
2019-02-04T07:19:59.382Z,15.43
2019-02-04T07:22:40.112Z,17.10
2019-02-04T07:25:20.652Z,15.80
2019-02-04T07:28:01.613Z,18.10
2019-02-04T07:30:41.786Z,14.23
2019-02-04T07:33:22.333Z,16.40
2019-02-04T07:36:03.544Z,30.25
2019-02-04T07:38:43.808Z,57.78
2019-02-04T07:41:23.670Z,91.80
2019-02-04T07:44:03.716Z,89.28
2019-02-04T07:46:44.392Z,85.83
2019-02-04T07:49:34.787Z,67.25
2019-02-04T07:52:06.500Z,66.90
2019-02-04T07:54:46.623Z,44.40
2019-02-04T07:57:26.900Z,26.42
2019-02-04T08:00:06.740Z,29.42
2019-02-04T08:02:46.931Z,28.35
2019-02-04T08:05:27.017Z,34.15
2019-02-04T08:08:06.757Z,30.00
2019-02-04T08:10:47.089Z,30.72
2019-02-04T08:13:27.060Z,26.10
2019-02-04T08:16:07.043Z,13.45
2019-02-04T08:18:47.175Z,17.02
2019-02-04T08:21:27.304Z,13.50
2019-02-04T08:24:07.464Z,17.52
2019-02-04T08:26:47.713Z,19.95
2019-02-04T08:29:28.072Z,14.90
2019-02-04T08:32:08.014Z,12.10
2019-02-04T08:34:48.010Z,13.62
2019-02-04T08:37:27.897Z,13.95
2019-02-04T08:40:08.143Z,14.80
2019-02-04T08:42:49.214Z,13.15
2019-02-04T08:45:29.322Z,16.10
2019-02-04T08:48:09.279Z,18.05
2019-02-04T08:50:49.544Z,16.02
2019-02-04T08:53:29.766Z,16.73
2019-02-04T08:56:09.563Z,13.00
2019-02-04T08:58:49.503Z,16.65
2019-02-04T09:01:29.579Z,17.00
2019-02-04T09:04:09.681Z,21.07
2019-02-04T09:06:50.644Z,11.30
2019-02-04T09:09:31.036Z,17.10
2019-02-04T09:12:11.146Z,14.85
2019-02-04T09:14:50.928Z,23.30
2019-02-04T09:17:31.138Z,14.55
2019-02-04T09:20:11.588Z,14.98
2019-02-04T09:22:51.350Z,16.67
2019-02-04T09:25:31.410Z,15.95
2019-02-04T09:28:11.695Z,12.95
2019-02-04T09:30:51.776Z,19.37
2019-02-04T09:33:29.913Z,15.72
2019-02-04T09:36:16.967Z,18.30
2019-02-04T09:38:57.672Z,14.38
2019-02-04T09:41:38.442Z,11.28
2019-02-04T09:44:06.167Z,11.90
2019-02-04T09:46:53.234Z,12.23
2019-02-04T09:49:32.985Z,12.53
2019-02-04T09:52:14.117Z,13.00
2019-02-04T09:54:54.261Z,14.15
2019-02-04T09:57:35.055Z,9.98
2019-02-04T10:00:15.917Z,14.47
2019-02-04T10:02:56.160Z,10.03
2019-02-04T10:05:36.187Z,17.35
2019-02-04T10:08:16.082Z,12.40
2019-02-04T10:10:56.211Z,14.05
2019-02-04T10:13:36.398Z,12.63
2019-02-04T10:16:16.437Z,16.32
2019-02-04T10:18:56.533Z,15.80
2019-02-04T10:21:36.965Z,13.85
2019-02-04T10:24:17.737Z,15.60
2019-02-04T10:26:57.841Z,16.55
2019-02-04T10:29:37.741Z,15.98
2019-02-04T10:32:17.764Z,16.85
2019-02-04T10:34:58.838Z,24.43
2019-02-04T10:37:38.816Z,16.40
2019-02-04T10:40:19.631Z,17.98
2019-02-04T10:43:00.579Z,25.10
2019-02-04T10:45:39.032Z,16.77
2019-02-04T10:48:26.420Z,18.67
2019-02-04T10:51:06.480Z,17.60
2019-02-04T10:53:46.310Z,16.07
2019-02-04T10:56:26.935Z,17.60
2019-02-04T10:59:06.862Z,26.05
2019-02-04T11:01:47.440Z,17.60
2019-02-04T11:04:27.915Z,16.10
2019-02-04T11:07:07.914Z,11.18
2019-02-04T11:09:48.510Z,13.08
2019-02-04T11:12:28.910Z,11.28
2019-02-04T11:15:08.741Z,16.50
2019-02-04T11:17:49.254Z,10.05
2019-02-04T11:20:30.377Z,12.03
2019-02-04T11:23:10.056Z,10.40
2019-02-04T11:25:49.789Z,12.03
2019-02-04T11:28:30.637Z,7.17
2019-02-04T11:31:10.498Z,6.20
2019-02-04T11:33:50.878Z,4.25
2019-02-04T11:36:31.156Z,3.98
2019-02-04T11:39:10.972Z,5.28
2019-02-04T11:41:52.028Z,4.22
2019-02-04T11:44:32.680Z,3.72
2019-02-04T11:47:12.727Z,4.30
2019-02-04T11:49:52.830Z,4.17
2019-02-04T11:52:35.075Z,4.58
2019-02-04T11:55:14.816Z,7.12
2019-02-04T11:57:55.203Z,5.47
2019-02-04T12:00:35.496Z,7.00
2019-02-04T12:03:15.756Z,4.97
2019-02-04T12:05:55.515Z,9.23
2019-02-04T12:08:35.627Z,4.78
2019-02-04T12:11:15.520Z,7.33
2019-02-04T12:13:58.780Z,3.37
2019-02-04T12:16:38.959Z,3.73
2019-02-04T12:19:18.822Z,3.53
2019-02-04T12:21:59.352Z,3.93
2019-02-04T12:24:41.234Z,2.90
2019-02-04T12:27:31.911Z,3.40
2019-02-04T12:30:03.649Z,2.83
2019-02-04T12:32:44.482Z,2.67
2019-02-04T12:35:24.628Z,3.37
2019-02-04T12:38:04.760Z,2.90
2019-02-04T12:40:44.942Z,3.10
2019-02-04T12:43:25.751Z,3.60
2019-02-04T12:46:05.308Z,3.10
2019-02-04T12:48:45.490Z,3.47
2019-02-04T12:51:33.340Z,3.07
2019-02-04T12:53:55.265Z,3.60
2019-02-04T12:56:22.896Z,3.37
2019-02-04T12:59:03.157Z,2.83
2019-02-04T13:01:43.168Z,4.37
2019-02-04T13:04:24.284Z,3.00
2019-02-04T13:07:04.746Z,5.03
2019-02-04T13:09:44.510Z,2.80
2019-02-04T13:12:24.513Z,3.57
2019-02-04T13:15:04.844Z,2.90
2019-02-04T13:17:44.760Z,3.97
2019-02-04T13:20:24.669Z,3.73
2019-02-04T13:23:04.909Z,3.80
2019-02-04T13:25:44.752Z,3.60
2019-02-04T13:28:26.009Z,3.40
2019-02-04T13:31:05.991Z,2.80
2019-02-04T13:33:47.508Z,4.37
2019-02-04T13:36:28.263Z,3.63
2019-02-04T13:39:08.057Z,5.90
2019-02-04T13:41:50.450Z,3.20
2019-02-04T13:44:30.305Z,3.77
2019-02-04T13:47:10.769Z,3.23
2019-02-04T13:49:50.816Z,3.67
2019-02-04T13:58:29.037Z,4.40
2019-02-04T14:01:08.787Z,3.60
2019-02-04T14:03:48.860Z,4.53
2019-02-04T14:06:27.137Z,3.83
2019-02-04T14:09:15.289Z,4.33
2019-02-04T14:11:55.608Z,4.30
2019-02-04T14:14:35.904Z,5.50
2019-02-04T14:17:15.850Z,3.87
2019-02-04T14:19:55.872Z,5.83
2019-02-04T14:22:36.150Z,4.17
2019-02-04T14:25:15.864Z,6.10
2019-02-04T14:27:56.187Z,6.50
2019-02-04T14:30:35.943Z,3.63
2019-02-04T14:33:16.428Z,3.30
2019-02-04T14:35:56.223Z,3.37
2019-02-04T14:38:36.514Z,7.37
2019-02-04T14:41:16.612Z,4.00
2019-02-04T14:43:56.970Z,3.33
2019-02-04T14:46:37.396Z,3.90
2019-02-04T14:49:17.183Z,3.63
2019-02-04T14:51:57.366Z,3.60
2019-02-04T14:54:38.215Z,3.40
2019-02-04T14:57:18.286Z,3.57
2019-02-04T14:59:58.500Z,3.30
2019-02-04T15:02:39.539Z,5.00
2019-02-04T15:05:19.610Z,3.93
2019-02-04T15:07:59.953Z,3.70
2019-02-04T15:10:40.131Z,4.00
2019-02-04T15:13:21.067Z,5.67
2019-02-04T15:16:01.075Z,3.20
2019-02-04T15:18:40.959Z,3.80
2019-02-04T15:21:21.125Z,6.47
2019-02-04T15:24:08.449Z,5.20
2019-02-04T15:26:43.460Z,5.03
2019-02-04T15:29:23.326Z,7.90
2019-02-04T15:32:03.725Z,7.17
2019-02-04T15:34:43.821Z,5.13
2019-02-04T15:37:24.520Z,4.47
2019-02-04T15:40:04.542Z,3.80
2019-02-04T15:42:44.827Z,5.10
2019-02-04T15:45:25.048Z,4.60
2019-02-04T15:48:04.653Z,14.13
2019-02-04T15:50:44.869Z,12.80
2019-02-04T15:53:25.389Z,9.20
2019-02-04T15:56:05.495Z,14.73
2019-02-04T15:58:45.180Z,13.40
2019-02-04T16:01:25.414Z,16.87
2019-02-04T16:04:05.721Z,18.97
2019-02-04T16:06:45.738Z,19.13
2019-02-04T16:09:26.066Z,15.50
2019-02-04T16:12:06.674Z,21.60
2019-02-04T16:14:35.046Z,21.77
2019-02-04T16:17:22.013Z,22.10
2019-02-04T16:20:02.196Z,22.30
2019-02-04T16:22:42.469Z,25.30
2019-02-04T16:25:22.374Z,21.00
2019-02-04T16:28:02.732Z,22.33
2019-02-04T16:30:42.676Z,22.40
2019-02-04T16:33:22.629Z,15.43
2019-02-04T16:36:02.854Z,20.60
2019-02-04T16:38:42.850Z,19.33
2019-02-04T16:41:22.737Z,16.30
2019-02-04T16:44:02.840Z,24.37
2019-02-04T16:46:42.831Z,23.60
2019-02-04T16:49:23.182Z,19.70
2019-02-04T16:52:03.134Z,22.53
2019-02-04T16:54:43.273Z,28.30
2019-02-04T16:57:23.427Z,23.40
2019-02-04T17:00:03.420Z,20.80
2019-02-04T17:02:45.584Z,26.20
2019-02-04T17:05:25.816Z,21.83
2019-02-04T17:08:06.130Z,23.90
2019-02-04T17:10:46.380Z,13.90
2019-02-04T17:13:26.361Z,13.97
2019-02-04T17:16:06.347Z,13.67
2019-02-04T17:18:46.400Z,14.77
2019-02-04T17:21:26.501Z,18.70
2019-02-04T17:24:06.521Z,29.23
2019-02-04T17:26:46.440Z,17.70
2019-02-04T17:29:26.656Z,17.33
2019-02-04T17:32:07.140Z,14.13
2019-02-04T17:34:46.890Z,13.80
2019-02-04T17:37:27.479Z,13.70
2019-02-04T17:40:07.586Z,16.30
2019-02-04T17:42:47.557Z,13.37
2019-02-04T17:45:27.788Z,23.90
2019-02-04T17:48:07.766Z,20.93
2019-02-04T17:50:47.894Z,21.62
2019-02-04T17:53:34.398Z,19.60
2019-02-04T17:56:10.218Z,19.67
2019-02-04T17:58:50.256Z,23.00
2019-02-04T18:01:30.970Z,42.20
2019-02-04T18:04:11.191Z,31.20
2019-02-04T18:06:51.487Z,30.33
2019-02-04T18:09:31.697Z,29.37
2019-02-04T18:12:11.714Z,25.63
2019-02-04T18:14:51.780Z,31.57
2019-02-04T18:17:31.864Z,22.83
2019-02-04T18:20:12.120Z,24.30
2019-02-04T18:22:51.860Z,18.98
2019-02-04T18:25:31.819Z,16.20
2019-02-04T18:28:12.076Z,14.83
2019-02-04T18:30:52.022Z,16.07
2019-02-04T18:33:32.082Z,18.80
2019-02-04T18:36:12.244Z,17.12
2019-02-04T18:38:52.469Z,20.05
2019-02-04T18:41:32.538Z,17.45
2019-02-04T18:44:12.895Z,19.20
2019-02-04T18:46:53.856Z,18.95
2019-02-04T18:49:34.080Z,19.90
2019-02-04T18:52:13.920Z,21.07
2019-02-04T18:54:54.037Z,20.62
2019-02-04T18:57:34.228Z,18.82
2019-02-04T19:00:14.558Z,17.92
2019-02-04T19:02:54.359Z,14.07
2019-02-04T19:05:35.357Z,15.20
2019-02-04T19:08:15.340Z,14.25
2019-02-04T19:10:55.716Z,14.90
2019-02-04T19:13:36.559Z,14.73
2019-02-04T19:16:17.414Z,12.58
2019-02-04T19:18:57.433Z,13.18
2019-02-04T19:21:40.177Z,11.60
2019-02-04T19:24:22.438Z,12.25
2019-02-04T19:27:02.587Z,10.38
2019-02-04T19:29:42.880Z,14.23
2019-02-04T19:32:23.054Z,13.30
2019-02-04T19:35:03.092Z,11.30
2019-02-04T19:37:43.332Z,9.30
2019-02-04T19:40:23.858Z,10.25
2019-02-04T19:43:03.713Z,13.08
2019-02-04T19:45:44.076Z,13.10
2019-02-04T19:48:24.220Z,15.05
2019-02-04T19:51:04.540Z,12.20
2019-02-04T19:53:45.642Z,12.45
2019-02-04T19:56:25.787Z,14.78
2019-02-04T19:59:05.518Z,11.57
2019-02-04T20:01:45.589Z,9.55
2019-02-04T20:04:25.994Z,10.40
2019-02-04T20:07:05.728Z,10.13
2019-02-04T20:09:45.916Z,11.60
2019-02-04T20:12:25.839Z,7.70
2019-02-04T20:15:05.940Z,10.35
2019-02-04T20:17:46.110Z,10.13
2019-02-04T20:20:26.725Z,9.65
2019-02-04T20:23:07.028Z,9.60
2019-02-04T20:25:47.552Z,11.53
2019-02-04T20:28:27.561Z,16.52
2019-02-04T20:31:07.720Z,9.55
2019-02-04T20:33:47.529Z,11.70
2019-02-04T20:36:27.651Z,15.90
2019-02-04T20:39:07.703Z,11.63
2019-02-04T20:41:47.844Z,11.73
2019-02-04T20:44:28.018Z,10.70
2019-02-04T20:47:08.241Z,12.07
2019-02-04T20:49:48.474Z,9.68
2019-02-04T20:52:29.502Z,7.80
2019-02-04T20:55:09.444Z,12.18
2019-02-04T20:57:49.827Z,8.05
2019-02-04T21:00:30.785Z,9.15
2019-02-04T21:03:10.608Z,8.98
2019-02-04T21:05:50.467Z,15.48
2019-02-04T21:08:30.902Z,13.00
2019-02-04T21:11:10.947Z,10.00
2019-02-04T21:13:50.890Z,9.08
2019-02-04T21:16:31.750Z,12.00
2019-02-04T21:19:12.314Z,8.08
2019-02-04T21:21:52.028Z,9.63
2019-02-04T21:24:32.338Z,13.55
2019-02-04T21:27:12.019Z,13.25
2019-02-04T21:29:51.902Z,13.38
2019-02-04T21:32:32.476Z,12.30
2019-02-04T21:35:12.072Z,12.13
2019-02-04T21:37:52.541Z,8.55
2019-02-04T21:40:32.611Z,7.03
2019-02-04T21:43:12.734Z,10.23
2019-02-04T21:45:52.656Z,10.05
2019-02-04T21:48:32.762Z,9.03
2019-02-04T21:51:12.867Z,7.50
2019-02-04T21:53:53.073Z,11.68
2019-02-04T21:56:32.872Z,12.90
2019-02-04T21:59:13.007Z,20.60
2019-02-04T22:01:53.074Z,22.35
2019-02-04T22:04:33.460Z,17.02
2019-02-04T22:07:13.759Z,17.52
2019-02-04T22:09:53.789Z,17.35
2019-02-04T22:12:34.454Z,12.37
2019-02-04T22:15:14.478Z,13.78
2019-02-04T22:17:54.816Z,14.68
2019-02-04T22:20:34.495Z,13.38
2019-02-04T22:23:14.646Z,6.22
2019-02-04T22:25:57.786Z,9.10
2019-02-04T22:28:38.396Z,9.93
2019-02-04T22:31:18.310Z,10.43
2019-02-04T22:33:58.364Z,13.85
2019-02-04T22:36:38.488Z,10.85
2019-02-04T22:39:18.727Z,12.40
2019-02-04T22:41:58.816Z,12.05
2019-02-04T22:44:36.934Z,9.20
2019-02-04T22:47:17.567Z,8.55
2019-02-04T22:49:57.728Z,11.08
2019-02-04T22:52:38.330Z,8.40
2019-02-04T22:55:16.327Z,8.88
2019-02-04T22:57:56.095Z,9.50
2019-02-04T23:04:12.556Z,9.00
2019-02-04T23:06:52.728Z,8.78
2019-02-04T23:09:32.787Z,11.78
2019-02-04T23:12:12.721Z,10.28
2019-02-04T23:14:52.932Z,12.15
2019-02-04T23:17:33.427Z,7.17
2019-02-04T23:20:13.136Z,7.97
2019-02-04T23:22:53.914Z,8.35
2019-02-04T23:25:43.029Z,10.95
2019-02-04T23:28:16.824Z,12.82
2019-02-04T23:30:58.938Z,11.15
2019-02-04T23:33:38.850Z,15.20
2019-02-04T23:36:18.882Z,13.70
2019-02-04T23:38:59.010Z,10.82
2019-02-04T23:41:39.048Z,12.88
2019-02-04T23:44:19.306Z,13.32
2019-02-04T23:46:59.781Z,13.25
2019-02-04T23:49:39.744Z,12.98
2019-02-04T23:52:19.793Z,15.93
2019-02-04T23:55:00.124Z,15.05
2019-02-04T23:57:41.137Z,9.50
